createdAt,value
2023-04-23T00:00:25.831Z,0.00
2023-04-23T00:01:25.785Z,0.00
2023-04-23T00:02:25.943Z,0.00
2023-04-23T00:03:26.144Z,0.00
2023-04-23T00:04:25.916Z,0.00
2023-04-23T00:05:25.786Z,0.00
2023-04-23T00:06:25.808Z,0.00
2023-04-23T00:07:25.702Z,0.00
2023-04-23T00:08:25.706Z,0.00
2023-04-23T00:09:25.796Z,0.00
2023-04-23T00:10:25.674Z,0.00
2023-04-23T00:11:25.767Z,0.00
2023-04-23T00:12:25.685Z,0.00
2023-04-23T00:13:26.055Z,0.00
2023-04-23T00:14:26.690Z,0.00
2023-04-23T00:15:25.679Z,0.00
2023-04-23T00:16:25.895Z,0.00
2023-04-23T00:17:25.699Z,0.00
2023-04-23T00:18:25.659Z,0.00
2023-04-23T00:19:25.701Z,0.00
2023-04-23T00:20:25.700Z,0.00
2023-04-23T00:21:25.781Z,0.00
2023-04-23T00:22:26.010Z,0.00
2023-04-23T00:23:25.660Z,0.00
2023-04-23T00:24:25.882Z,0.00
2023-04-23T00:25:25.616Z,0.00
2023-04-23T00:26:25.726Z,0.00
2023-04-23T00:27:25.586Z,0.00
2023-04-23T00:28:25.644Z,0.00
2023-04-23T00:29:26.793Z,0.00
2023-04-23T00:30:25.597Z,0.00
2023-04-23T00:31:25.726Z,0.00
2023-04-23T00:32:25.645Z,0.00
2023-04-23T00:33:25.719Z,0.00
2023-04-23T00:34:25.880Z,0.00
2023-04-23T00:35:25.544Z,0.00
2023-04-23T00:36:25.519Z,0.00
2023-04-23T00:37:26.482Z,0.00
2023-04-23T00:38:25.572Z,0.00
2023-04-23T00:39:25.533Z,0.00
2023-04-23T00:40:25.495Z,0.00
2023-04-23T00:41:25.661Z,0.00
2023-04-23T00:42:25.495Z,0.00
2023-04-23T00:43:25.630Z,0.00
2023-04-23T00:44:25.783Z,0.00
2023-04-23T00:45:25.607Z,0.00
2023-04-23T00:46:25.567Z,0.00
2023-04-23T00:47:25.478Z,0.00
2023-04-23T00:48:25.661Z,0.00
2023-04-23T00:49:25.622Z,0.00
2023-04-23T00:50:25.650Z,0.00
2023-04-23T00:51:25.428Z,0.00
2023-04-23T00:52:26.068Z,0.00
2023-04-23T00:53:25.509Z,0.00
2023-04-23T00:54:25.477Z,0.00
2023-04-23T00:55:25.790Z,0.00
2023-04-23T00:56:25.405Z,0.00
2023-04-23T00:57:25.398Z,0.00
2023-04-23T00:58:25.817Z,0.00
2023-04-23T00:59:25.646Z,0.00
2023-04-23T01:00:25.401Z,0.00
2023-04-23T01:01:25.408Z,0.00
2023-04-23T01:02:25.474Z,0.00
2023-04-23T01:03:25.523Z,0.00
2023-04-23T01:04:25.403Z,0.00
2023-04-23T01:05:25.350Z,0.00
2023-04-23T01:06:25.354Z,0.00
2023-04-23T01:07:25.451Z,0.00
2023-04-23T01:08:25.336Z,0.00
2023-04-23T01:09:25.396Z,0.00
2023-04-23T01:10:25.314Z,0.00
2023-04-23T01:11:25.374Z,0.00
2023-04-23T01:12:25.335Z,0.00
2023-04-23T01:13:25.330Z,0.00
2023-04-23T01:14:25.333Z,0.00
2023-04-23T01:15:25.302Z,0.00
2023-04-23T01:16:25.322Z,0.00
2023-04-23T01:17:25.368Z,0.00
2023-04-23T01:18:25.266Z,0.00
2023-04-23T01:19:25.306Z,0.00
2023-04-23T01:20:25.304Z,0.00
2023-04-23T01:21:25.296Z,0.00
2023-04-23T01:22:25.272Z,0.00
2023-04-23T01:23:25.282Z,0.00
2023-04-23T01:24:25.246Z,0.00
2023-04-23T01:25:25.246Z,0.00
2023-04-23T01:26:25.226Z,0.00
2023-04-23T01:27:25.246Z,0.00
2023-04-23T01:28:25.274Z,0.00
2023-04-23T01:29:25.221Z,0.00
2023-04-23T01:30:25.204Z,0.00
2023-04-23T01:31:25.222Z,0.00
2023-04-23T01:32:25.224Z,0.00
2023-04-23T01:33:25.193Z,0.00
2023-04-23T01:34:25.229Z,0.00
2023-04-23T01:35:25.185Z,0.00
2023-04-23T01:36:25.152Z,0.00
2023-04-23T01:37:25.196Z,0.00
2023-04-23T01:38:25.155Z,0.00
2023-04-23T01:39:25.161Z,0.00
2023-04-23T01:40:25.140Z,0.00
2023-04-23T01:41:25.139Z,0.00
2023-04-23T01:42:25.201Z,0.00
2023-04-23T01:43:25.154Z,0.00
2023-04-23T01:44:25.113Z,0.00
2023-04-23T01:45:25.108Z,0.00
2023-04-23T01:46:25.134Z,0.00
2023-04-23T01:47:25.160Z,0.00
2023-04-23T01:48:25.124Z,0.00
2023-04-23T01:49:25.122Z,0.00
2023-04-23T01:50:25.122Z,0.00
2023-04-23T01:51:25.148Z,0.00
2023-04-23T01:52:25.115Z,0.00
2023-04-23T01:53:25.068Z,0.00
2023-04-23T01:54:25.103Z,0.00
2023-04-23T01:55:25.080Z,0.00
2023-04-23T01:56:25.065Z,0.00
2023-04-23T01:57:25.067Z,0.00
2023-04-23T01:58:25.060Z,0.00
2023-04-23T01:59:25.023Z,0.00
2023-04-23T02:00:25.013Z,0.00
2023-04-23T02:01:25.046Z,0.00
2023-04-23T02:02:25.090Z,0.00
2023-04-23T02:03:25.169Z,0.00
2023-04-23T02:04:25.076Z,0.00
2023-04-23T02:05:25.031Z,0.00
2023-04-23T02:06:24.971Z,0.00
2023-04-23T02:07:24.950Z,0.00
2023-04-23T02:08:24.973Z,0.00
2023-04-23T02:09:24.958Z,0.00
2023-04-23T02:10:24.990Z,0.00
2023-04-23T02:11:24.958Z,0.00
2023-04-23T02:12:24.950Z,0.00
2023-04-23T02:13:24.952Z,0.00
2023-04-23T02:14:24.942Z,0.00
2023-04-23T02:15:24.951Z,0.00
2023-04-23T02:16:24.969Z,0.00
2023-04-23T02:17:25.026Z,0.00
2023-04-23T02:18:24.934Z,0.00
2023-04-23T02:19:24.910Z,0.00
2023-04-23T02:20:24.897Z,0.00
2023-04-23T02:21:24.909Z,0.00
2023-04-23T02:22:57.311Z,0.00
2023-04-23T02:23:57.348Z,0.00
2023-04-23T02:24:58.286Z,0.00
2023-04-23T02:25:24.878Z,0.00
2023-04-23T02:26:58.294Z,0.00
2023-04-23T02:27:59.347Z,0.00
2023-04-23T02:28:58.358Z,0.00
2023-04-23T02:29:58.298Z,0.00
2023-04-23T02:30:58.318Z,0.00
2023-04-23T02:31:58.338Z,0.00
2023-04-23T02:32:59.299Z,0.00
2023-04-23T02:33:24.908Z,0.00
2023-04-23T02:34:24.835Z,0.00
2023-04-23T02:35:24.877Z,0.00
2023-04-23T02:36:24.822Z,0.00
2023-04-23T02:37:24.834Z,0.00
2023-04-23T02:38:24.812Z,0.00
2023-04-23T02:39:24.766Z,0.00
2023-04-23T02:40:24.775Z,0.00
2023-04-23T02:41:24.782Z,0.00
2023-04-23T02:42:24.755Z,0.00
2023-04-23T02:43:24.769Z,0.00
2023-04-23T02:44:25.767Z,0.00
2023-04-23T02:45:24.723Z,0.00
2023-04-23T02:46:24.735Z,0.00
2023-04-23T02:47:24.776Z,0.00
2023-04-23T02:48:25.701Z,0.00
2023-04-23T02:49:24.681Z,0.00
2023-04-23T02:50:24.713Z,0.00
2023-04-23T02:51:24.710Z,0.00
2023-04-23T02:52:24.692Z,0.00
2023-04-23T02:53:24.661Z,0.00
2023-04-23T02:54:24.666Z,0.00
2023-04-23T02:55:24.676Z,0.00
2023-04-23T02:56:24.621Z,0.00
2023-04-23T02:57:24.673Z,0.00
2023-04-23T02:58:24.669Z,0.00
2023-04-23T02:59:24.633Z,0.00
2023-04-23T03:00:24.628Z,0.00
2023-04-23T03:01:24.794Z,0.00
2023-04-23T03:02:24.707Z,0.00
2023-04-23T03:03:24.782Z,0.00
2023-04-23T03:04:24.647Z,0.00
2023-04-23T03:05:24.588Z,0.00
2023-04-23T03:06:24.661Z,0.00
2023-04-23T03:07:24.594Z,0.00
2023-04-23T03:08:24.614Z,0.00
2023-04-23T03:09:24.572Z,0.00
2023-04-23T03:10:24.571Z,0.00
2023-04-23T03:11:24.577Z,0.00
2023-04-23T03:12:24.552Z,0.00
2023-04-23T03:13:24.540Z,0.00
2023-04-23T03:14:24.578Z,0.00
2023-04-23T03:15:24.534Z,0.00
2023-04-23T03:16:24.562Z,0.00
2023-04-23T03:17:24.591Z,0.00
2023-04-23T03:18:24.511Z,0.00
2023-04-23T03:19:24.590Z,0.00
2023-04-23T03:20:24.561Z,0.00
2023-04-23T03:21:24.497Z,0.00
2023-04-23T03:22:24.509Z,0.00
2023-04-23T03:23:24.462Z,0.00
2023-04-23T03:24:24.496Z,0.00
2023-04-23T03:25:24.544Z,0.00
2023-04-23T03:26:24.450Z,0.00
2023-04-23T03:27:24.431Z,0.00
2023-04-23T03:28:24.470Z,0.00
2023-04-23T03:29:24.476Z,0.00
2023-04-23T03:30:24.435Z,0.00
2023-04-23T03:31:24.432Z,0.00
2023-04-23T03:32:24.461Z,0.00
2023-04-23T03:33:24.410Z,0.00
2023-04-23T03:34:24.406Z,0.00
2023-04-23T03:35:24.433Z,0.00
2023-04-23T03:36:24.482Z,0.00
2023-04-23T03:37:24.408Z,0.00
2023-04-23T03:38:24.413Z,0.00
2023-04-23T03:39:24.395Z,0.00
2023-04-23T03:40:24.364Z,0.00
2023-04-23T03:41:24.395Z,0.00
2023-04-23T03:42:24.378Z,0.00
2023-04-23T03:43:24.363Z,0.00
2023-04-23T03:44:24.371Z,0.00
2023-04-23T03:45:24.331Z,0.00
2023-04-23T03:46:24.322Z,0.00
2023-04-23T03:47:24.372Z,0.00
2023-04-23T03:48:24.320Z,0.00
2023-04-23T03:49:24.294Z,0.00
2023-04-23T03:50:24.300Z,0.00
2023-04-23T03:51:24.287Z,0.00
2023-04-23T03:52:24.271Z,0.00
2023-04-23T03:53:24.294Z,0.00
2023-04-23T03:54:24.289Z,0.00
2023-04-23T03:55:24.271Z,0.00
2023-04-23T03:56:26.486Z,0.00
2023-04-23T03:57:24.297Z,0.00
2023-04-23T03:58:24.265Z,0.00
2023-04-23T03:59:24.241Z,0.00
2023-04-23T04:00:24.237Z,0.00
2023-04-23T04:01:24.228Z,0.00
2023-04-23T04:02:24.375Z,0.00
2023-04-23T04:03:24.557Z,0.00
2023-04-23T04:04:24.454Z,0.00
2023-04-23T04:05:24.249Z,0.00
2023-04-23T04:06:24.195Z,0.00
2023-04-23T04:07:24.203Z,0.00
2023-04-23T04:08:24.195Z,0.00
2023-04-23T04:09:24.335Z,0.00
2023-04-23T04:10:24.149Z,0.00
2023-04-23T04:11:24.163Z,0.00
2023-04-23T04:12:24.154Z,0.00
2023-04-23T04:13:24.160Z,0.00
2023-04-23T04:14:24.131Z,0.00
2023-04-23T04:15:24.140Z,0.00
2023-04-23T04:16:24.128Z,0.00
2023-04-23T04:17:24.112Z,0.00
2023-04-23T04:18:24.130Z,0.00
2023-04-23T04:19:24.117Z,0.00
2023-04-23T04:20:24.120Z,0.00
2023-04-23T04:21:24.116Z,0.00
2023-04-23T04:22:24.096Z,5.62
2023-04-23T04:23:24.064Z,5.62
2023-04-23T04:24:26.122Z,5.62
2023-04-23T04:25:25.124Z,5.62
2023-04-23T04:26:24.092Z,5.62
2023-04-23T04:27:24.085Z,5.62
2023-04-23T04:28:24.062Z,5.62
2023-04-23T04:29:24.081Z,5.62
2023-04-23T04:30:24.044Z,5.62
2023-04-23T04:31:24.066Z,5.62
2023-04-23T04:32:24.108Z,5.62
2023-04-23T04:33:24.048Z,5.62
2023-04-23T04:34:24.294Z,5.62
2023-04-23T04:35:24.008Z,11.25
2023-04-23T04:36:24.027Z,11.25
2023-04-23T04:37:24.013Z,11.25
2023-04-23T04:38:24.006Z,11.25
2023-04-23T04:39:23.961Z,11.25
2023-04-23T04:40:23.961Z,11.25
2023-04-23T04:41:24.002Z,11.25
2023-04-23T04:42:23.993Z,16.88
2023-04-23T04:43:23.987Z,16.88
2023-04-23T04:44:23.959Z,16.88
2023-04-23T04:45:23.975Z,16.88
2023-04-23T04:46:23.962Z,16.88
2023-04-23T04:47:23.944Z,16.88
2023-04-23T04:48:23.922Z,16.88
2023-04-23T04:49:23.938Z,16.88
2023-04-23T04:50:23.937Z,16.88
2023-04-23T04:51:23.902Z,16.88
2023-04-23T04:52:23.868Z,16.88
2023-04-23T04:53:23.915Z,16.88
2023-04-23T04:54:23.934Z,16.88
2023-04-23T04:55:23.896Z,16.88
2023-04-23T04:56:23.861Z,16.88
2023-04-23T04:57:23.854Z,16.88
2023-04-23T04:58:23.853Z,16.88
2023-04-23T04:59:23.855Z,16.88
2023-04-23T05:00:23.830Z,16.88
2023-04-23T05:01:23.881Z,16.88
2023-04-23T05:02:24.018Z,16.88
2023-04-23T05:03:23.959Z,22.50
2023-04-23T05:04:23.902Z,22.50
2023-04-23T05:05:23.817Z,22.50
2023-04-23T05:06:23.773Z,22.50
2023-04-23T05:07:23.800Z,28.12
2023-04-23T05:08:23.766Z,28.12
2023-04-23T05:09:23.761Z,33.75
2023-04-23T05:10:23.773Z,33.75
2023-04-23T05:11:24.780Z,39.38
2023-04-23T05:12:23.785Z,39.38
2023-04-23T05:13:23.743Z,45.00
2023-04-23T05:14:23.721Z,45.00
2023-04-23T05:15:23.713Z,50.62
2023-04-23T05:16:24.334Z,50.62
2023-04-23T05:17:23.842Z,56.25
2023-04-23T05:18:23.708Z,56.25
2023-04-23T05:19:23.725Z,56.25
2023-04-23T05:20:23.695Z,61.88
2023-04-23T05:21:23.688Z,61.88
2023-04-23T05:22:23.689Z,61.88
2023-04-23T05:23:23.678Z,61.88
2023-04-23T05:24:23.690Z,61.88
2023-04-23T05:25:23.723Z,61.88
2023-04-23T05:26:23.658Z,67.50
2023-04-23T05:27:23.695Z,67.50
2023-04-23T05:28:23.653Z,67.50
2023-04-23T05:29:23.639Z,73.12
2023-04-23T05:30:23.633Z,73.12
2023-04-23T05:31:23.641Z,78.75
2023-04-23T05:32:23.656Z,84.38
2023-04-23T05:33:23.599Z,95.62
2023-04-23T05:34:23.574Z,101.25
2023-04-23T05:35:23.642Z,106.88
2023-04-23T05:36:23.601Z,118.12
2023-04-23T05:37:23.569Z,123.75
2023-04-23T05:38:23.573Z,129.38
2023-04-23T05:39:23.561Z,140.62
2023-04-23T05:40:23.585Z,146.25
2023-04-23T05:41:23.585Z,146.25
2023-04-23T05:42:23.555Z,151.88
2023-04-23T05:43:23.544Z,151.88
2023-04-23T05:44:23.523Z,151.88
2023-04-23T05:45:23.539Z,146.25
2023-04-23T05:46:23.587Z,146.25
2023-04-23T05:47:23.538Z,140.62
2023-04-23T05:48:24.499Z,140.62
2023-04-23T05:49:23.512Z,140.62
2023-04-23T05:50:23.468Z,140.62
2023-04-23T05:51:23.524Z,140.62
2023-04-23T05:52:23.483Z,146.25
2023-04-23T05:53:23.465Z,140.62
2023-04-23T05:54:23.469Z,140.62
2023-04-23T05:55:23.466Z,140.62
2023-04-23T05:56:23.442Z,146.25
2023-04-23T05:57:23.475Z,157.50
2023-04-23T05:58:23.458Z,157.50
2023-04-23T05:59:23.426Z,163.12
2023-04-23T06:00:23.436Z,157.50
2023-04-23T06:01:23.482Z,157.50
2023-04-23T06:02:24.864Z,163.12
2023-04-23T06:03:24.568Z,163.12
2023-04-23T06:04:23.830Z,163.12
2023-04-23T06:05:23.638Z,163.12
2023-04-23T06:06:23.390Z,157.50
2023-04-23T06:07:23.358Z,157.50
2023-04-23T06:08:25.038Z,163.12
2023-04-23T06:09:24.362Z,157.50
2023-04-23T06:10:23.411Z,157.50
2023-04-23T06:11:23.359Z,163.12
2023-04-23T06:12:23.363Z,168.75
2023-04-23T06:13:23.391Z,168.75
2023-04-23T06:14:23.310Z,185.62
2023-04-23T06:15:23.304Z,196.88
2023-04-23T06:16:23.360Z,196.88
2023-04-23T06:17:23.348Z,219.38
2023-04-23T06:18:23.301Z,219.38
2023-04-23T06:19:23.345Z,225.00
2023-04-23T06:20:23.346Z,230.62
2023-04-23T06:21:23.325Z,236.25
2023-04-23T06:22:23.279Z,241.88
2023-04-23T06:23:23.281Z,241.88
2023-04-23T06:24:23.284Z,241.88
2023-04-23T06:25:23.329Z,247.50
2023-04-23T06:26:23.297Z,236.25
2023-04-23T06:27:23.261Z,241.88
2023-04-23T06:28:23.245Z,241.88
2023-04-23T06:29:23.242Z,247.50
2023-04-23T06:30:23.223Z,247.50
2023-04-23T06:31:23.310Z,264.38
2023-04-23T06:32:23.306Z,270.00
2023-04-23T06:33:23.205Z,275.62
2023-04-23T06:34:23.234Z,264.38
2023-04-23T06:35:23.223Z,286.88
2023-04-23T06:36:23.816Z,286.88
2023-04-23T06:37:23.221Z,270.00
2023-04-23T06:38:23.187Z,275.62
2023-04-23T06:39:23.191Z,298.12
2023-04-23T06:40:23.225Z,292.50
2023-04-23T06:41:23.187Z,292.50
2023-04-23T06:42:23.155Z,292.50
2023-04-23T06:43:23.127Z,292.50
2023-04-23T06:44:23.116Z,315.00
2023-04-23T06:45:23.122Z,303.75
2023-04-23T06:46:23.193Z,326.25
2023-04-23T06:47:23.110Z,337.50
2023-04-23T06:48:23.129Z,360.00
2023-04-23T06:49:23.103Z,354.38
2023-04-23T06:50:23.142Z,326.25
2023-04-23T06:51:23.105Z,326.25
2023-04-23T06:52:23.064Z,348.75
2023-04-23T06:53:23.096Z,309.38
2023-04-23T06:54:23.189Z,320.62
2023-04-23T06:55:23.102Z,298.12
2023-04-23T06:56:23.087Z,315.00
2023-04-23T06:57:23.102Z,337.50
2023-04-23T06:58:23.018Z,298.12
2023-04-23T06:59:23.038Z,286.88
2023-04-23T07:00:23.009Z,286.88
2023-04-23T07:01:23.179Z,315.00
2023-04-23T07:02:23.076Z,292.50
2023-04-23T07:03:23.622Z,337.50
2023-04-23T07:04:23.801Z,382.50
2023-04-23T07:05:22.985Z,382.50
2023-04-23T07:06:23.025Z,337.50
2023-04-23T07:07:23.059Z,360.00
2023-04-23T07:08:23.009Z,393.75
2023-04-23T07:09:22.984Z,421.88
2023-04-23T07:10:23.001Z,399.38
2023-04-23T07:11:22.970Z,410.62
2023-04-23T07:12:23.094Z,478.12
2023-04-23T07:13:22.951Z,517.50
2023-04-23T07:14:22.966Z,517.50
2023-04-23T07:15:22.983Z,500.62
2023-04-23T07:16:22.982Z,517.50
2023-04-23T07:17:22.977Z,433.12
2023-04-23T07:18:22.934Z,371.25
2023-04-23T07:19:22.952Z,309.38
2023-04-23T07:20:22.908Z,303.75
2023-04-23T07:21:22.903Z,286.88
2023-04-23T07:22:22.932Z,264.38
2023-04-23T07:23:23.220Z,303.75
2023-04-23T07:24:22.887Z,354.38
2023-04-23T07:25:22.914Z,393.75
2023-04-23T07:26:22.878Z,472.50
2023-04-23T07:27:22.883Z,849.38
2023-04-23T07:28:22.865Z,1018.12
2023-04-23T07:29:22.908Z,1068.75
2023-04-23T07:30:22.849Z,478.12
2023-04-23T07:31:22.857Z,540.00
2023-04-23T07:32:22.848Z,450.00
2023-04-23T07:33:22.818Z,753.75
2023-04-23T07:34:23.861Z,427.50
2023-04-23T07:35:22.839Z,337.50
2023-04-23T07:36:22.834Z,315.00
2023-04-23T07:37:22.828Z,337.50
2023-04-23T07:38:22.806Z,348.75
2023-04-23T07:39:22.811Z,365.62
2023-04-23T07:40:22.971Z,433.12
2023-04-23T07:41:22.807Z,556.88
2023-04-23T07:42:22.788Z,461.25
2023-04-23T07:43:22.820Z,466.88
2023-04-23T07:44:22.745Z,798.75
2023-04-23T07:45:23.352Z,478.12
2023-04-23T07:46:22.803Z,483.75
2023-04-23T07:47:23.034Z,500.62
2023-04-23T07:48:22.749Z,534.38
2023-04-23T07:49:22.723Z,1681.88
2023-04-23T07:50:22.770Z,635.62
2023-04-23T07:51:22.697Z,1783.12
2023-04-23T07:52:22.838Z,1642.50
2023-04-23T07:53:22.759Z,1721.25
2023-04-23T07:54:23.986Z,1755.00
2023-04-23T07:55:22.707Z,1755.00
2023-04-23T07:56:22.693Z,1878.75
2023-04-23T07:57:22.677Z,1906.88
2023-04-23T07:58:22.668Z,1974.38
2023-04-23T07:59:26.944Z,2013.75
2023-04-23T08:00:22.639Z,2070.00
2023-04-23T08:01:22.653Z,2075.62
2023-04-23T08:02:22.692Z,1935.00
2023-04-23T08:03:23.053Z,1788.75
2023-04-23T08:04:22.880Z,1468.12
2023-04-23T08:05:22.765Z,1648.12
2023-04-23T08:06:22.650Z,1665.00
2023-04-23T08:07:22.677Z,1710.00
2023-04-23T08:08:22.620Z,1755.00
2023-04-23T08:09:22.643Z,1670.62
2023-04-23T08:10:24.325Z,1710.00
2023-04-23T08:11:23.326Z,1743.75
2023-04-23T08:12:22.611Z,1715.62
2023-04-23T08:13:22.677Z,1710.00
2023-04-23T08:14:22.635Z,1631.25
2023-04-23T08:15:22.566Z,1603.12
2023-04-23T08:16:22.679Z,1681.88
2023-04-23T08:17:22.641Z,1828.12
2023-04-23T08:18:22.677Z,1777.50
2023-04-23T08:19:22.523Z,1665.00
2023-04-23T08:20:22.568Z,1642.50
2023-04-23T08:21:22.541Z,1575.00
2023-04-23T08:22:22.498Z,1597.50
2023-04-23T08:23:22.508Z,1693.12
2023-04-23T08:24:22.508Z,1743.75
2023-04-23T08:25:22.581Z,1738.12
2023-04-23T08:26:22.475Z,1698.75
2023-04-23T08:27:22.509Z,1704.38
2023-04-23T08:28:22.468Z,1698.75
2023-04-23T08:29:22.457Z,1023.75
2023-04-23T08:30:22.424Z,815.62
2023-04-23T08:31:26.347Z,1355.62
2023-04-23T08:32:23.631Z,1873.12
2023-04-23T08:33:22.428Z,455.62
2023-04-23T08:34:22.424Z,1395.00
2023-04-23T08:35:22.396Z,1726.88
2023-04-23T08:36:22.399Z,1636.88
2023-04-23T08:37:30.326Z,1648.12
2023-04-23T08:38:24.478Z,1417.50
2023-04-23T08:39:22.417Z,1811.25
2023-04-23T08:40:23.459Z,1946.25
2023-04-23T08:41:22.378Z,1912.50
2023-04-23T08:42:22.396Z,1743.75
2023-04-23T08:43:22.368Z,1980.00
2023-04-23T08:44:22.565Z,2176.88
2023-04-23T08:45:22.398Z,2143.12
2023-04-23T08:46:22.345Z,1963.12
2023-04-23T08:47:22.332Z,1991.25
2023-04-23T08:48:22.318Z,1912.50
2023-04-23T08:49:22.389Z,1923.75
2023-04-23T08:50:22.413Z,2047.50
2023-04-23T08:51:22.327Z,1951.88
2023-04-23T08:52:22.304Z,1974.38
2023-04-23T08:53:22.277Z,1912.50
2023-04-23T08:54:22.338Z,1873.12
2023-04-23T08:55:22.297Z,1906.88
2023-04-23T08:56:22.283Z,1996.88
2023-04-23T08:57:22.274Z,1822.50
2023-04-23T08:58:22.321Z,1833.75
2023-04-23T08:59:22.294Z,1811.25
2023-04-23T09:00:22.288Z,1777.50
2023-04-23T09:01:22.344Z,1462.50
2023-04-23T09:02:22.347Z,1906.88
2023-04-23T09:03:22.328Z,2002.50
2023-04-23T09:04:22.262Z,2070.00
2023-04-23T09:05:22.296Z,2070.00
2023-04-23T09:06:22.253Z,2199.38
2023-04-23T09:07:22.253Z,2227.50
2023-04-23T09:08:22.253Z,2255.62
2023-04-23T09:09:22.206Z,2356.88
2023-04-23T09:10:22.264Z,1113.75
2023-04-23T09:11:22.232Z,2323.12
2023-04-23T09:12:22.187Z,2458.12
2023-04-23T09:13:22.851Z,2463.75
2023-04-23T09:14:22.157Z,2581.88
2023-04-23T09:15:22.157Z,2463.75
2023-04-23T09:16:22.196Z,2126.25
2023-04-23T09:17:22.190Z,2497.50
2023-04-23T09:18:22.175Z,2486.25
2023-04-23T09:19:22.135Z,2368.12
2023-04-23T09:20:22.203Z,2340.00
2023-04-23T09:21:22.152Z,2311.88
2023-04-23T09:22:22.121Z,2385.00
2023-04-23T09:23:22.104Z,2300.62
2023-04-23T09:24:22.140Z,2334.38
2023-04-23T09:25:22.097Z,2407.50
2023-04-23T09:26:22.069Z,871.88
2023-04-23T09:27:22.125Z,2446.88
2023-04-23T09:28:22.076Z,900.00
2023-04-23T09:29:22.063Z,1310.62
2023-04-23T09:30:22.183Z,866.25
2023-04-23T09:31:22.056Z,2700.00
2023-04-23T09:32:22.117Z,2643.75
2023-04-23T09:33:22.063Z,1923.75
2023-04-23T09:34:22.125Z,1693.12
2023-04-23T09:35:22.026Z,742.50
2023-04-23T09:36:22.031Z,613.12
2023-04-23T09:37:22.070Z,528.75
2023-04-23T09:38:22.025Z,483.75
2023-04-23T09:39:22.019Z,421.88
2023-04-23T09:40:22.012Z,376.88
2023-04-23T09:41:22.012Z,376.88
2023-04-23T09:42:22.014Z,393.75
2023-04-23T09:43:21.982Z,421.88
2023-04-23T09:44:22.152Z,489.38
2023-04-23T09:45:22.018Z,624.38
2023-04-23T09:46:21.986Z,585.00
2023-04-23T09:47:24.485Z,686.25
2023-04-23T09:48:21.946Z,956.25
2023-04-23T09:49:21.994Z,1288.12
2023-04-23T09:50:21.933Z,2413.12
2023-04-23T09:51:21.998Z,573.75
2023-04-23T09:52:21.955Z,646.88
2023-04-23T09:53:21.929Z,2497.50
2023-04-23T09:54:22.008Z,2446.88
2023-04-23T09:55:21.935Z,2171.25
2023-04-23T09:56:21.893Z,1873.12
2023-04-23T09:57:21.896Z,1878.75
2023-04-23T09:58:22.893Z,2244.38
2023-04-23T09:59:32.130Z,2137.50
2023-04-23T10:00:23.172Z,2345.62
2023-04-23T10:01:21.900Z,1912.50
2023-04-23T10:02:21.933Z,855.00
2023-04-23T10:03:22.080Z,793.12
2023-04-23T10:04:21.991Z,781.88
2023-04-23T10:05:24.912Z,843.75
2023-04-23T10:06:40.761Z,984.38
2023-04-23T10:07:23.825Z,2677.50
2023-04-23T10:08:22.999Z,2559.38
2023-04-23T10:09:21.808Z,2418.75
2023-04-23T10:10:21.809Z,2525.62
2023-04-23T10:11:21.801Z,2469.38
2023-04-23T10:12:41.168Z,2311.88
2023-04-23T10:13:23.824Z,2317.50
2023-04-23T10:14:21.785Z,2418.75
2023-04-23T10:15:21.810Z,2553.75
2023-04-23T10:16:24.418Z,2536.88
2023-04-23T10:17:23.821Z,2497.50
2023-04-23T10:18:21.772Z,2306.25
2023-04-23T10:19:21.755Z,2272.50
2023-04-23T10:20:21.771Z,2272.50
2023-04-23T10:21:21.766Z,2390.62
2023-04-23T10:22:21.774Z,2576.25
2023-04-23T10:23:21.726Z,2694.38
2023-04-23T10:24:21.761Z,2649.38
2023-04-23T10:25:21.697Z,2733.75
2023-04-23T10:26:21.691Z,2823.75
2023-04-23T10:28:22.678Z,2953.12
2023-04-23T10:29:21.759Z,3290.62
2023-04-23T10:30:21.698Z,3217.50
2023-04-23T10:31:21.689Z,2767.50
2023-04-23T10:32:21.706Z,2857.50
2023-04-23T10:33:29.470Z,1372.50
2023-04-23T10:34:23.736Z,1726.88
2023-04-23T10:35:21.685Z,2148.75
2023-04-23T10:36:21.670Z,2643.75
2023-04-23T10:37:21.720Z,2666.25
2023-04-23T10:38:21.696Z,2716.88
2023-04-23T10:39:44.317Z,2688.75
2023-04-23T10:40:23.637Z,2424.38
2023-04-23T10:41:22.371Z,2587.50
2023-04-23T10:42:21.664Z,2688.75
2023-04-23T10:43:22.011Z,2812.50
2023-04-23T10:44:44.950Z,2610.00
2023-04-23T10:45:25.425Z,3026.25
2023-04-23T10:46:22.692Z,3245.62
2023-04-23T10:47:21.654Z,1704.38
2023-04-23T10:48:21.640Z,1440.00
2023-04-23T10:49:21.624Z,1035.00
2023-04-23T10:50:22.892Z,1136.25
2023-04-23T10:52:25.360Z,1299.38
2023-04-23T10:53:37.248Z,1535.62
2023-04-23T10:54:27.292Z,933.75
2023-04-23T10:55:24.242Z,1479.38
2023-04-23T10:56:21.568Z,1091.25
2023-04-23T10:57:21.572Z,1372.50
2023-04-23T10:58:21.603Z,2632.50
2023-04-23T10:59:21.570Z,2610.00
2023-04-23T11:00:22.478Z,2385.00
2023-04-23T11:01:21.567Z,916.88
2023-04-23T11:02:22.681Z,810.00
2023-04-23T11:03:21.843Z,1918.12
2023-04-23T11:04:21.862Z,2002.50
2023-04-23T11:05:22.032Z,2278.12
2023-04-23T11:06:21.514Z,1800.00
2023-04-23T11:07:21.519Z,1743.75
2023-04-23T11:08:21.526Z,1991.25
2023-04-23T11:09:21.559Z,1873.12
2023-04-23T11:10:21.476Z,1029.38
2023-04-23T11:11:21.483Z,1040.62
2023-04-23T11:12:21.473Z,2283.75
2023-04-23T11:13:21.494Z,2373.75
2023-04-23T11:14:21.476Z,2317.50
2023-04-23T11:15:21.466Z,2795.62
2023-04-23T11:16:21.553Z,1901.25
2023-04-23T11:17:21.566Z,2385.00
2023-04-23T11:18:21.434Z,2520.00
2023-04-23T11:19:21.756Z,2092.50
2023-04-23T11:20:22.403Z,922.50
2023-04-23T11:21:21.438Z,1046.25
2023-04-23T11:22:21.416Z,939.38
2023-04-23T11:23:21.414Z,990.00
2023-04-23T11:24:21.566Z,2109.38
2023-04-23T11:25:21.474Z,933.75
2023-04-23T11:26:21.449Z,1305.00
2023-04-23T11:27:21.412Z,1215.00
2023-04-23T11:28:21.401Z,978.75
2023-04-23T11:29:21.890Z,2840.62
2023-04-23T11:30:21.385Z,2812.50
2023-04-23T11:31:21.402Z,2722.50
2023-04-23T11:32:21.494Z,2930.62
2023-04-23T11:33:21.395Z,2700.00
2023-04-23T11:34:21.356Z,2638.12
2023-04-23T11:35:21.360Z,2497.50
2023-04-23T11:36:21.371Z,2295.00
2023-04-23T11:37:21.379Z,2401.88
2023-04-23T11:38:22.323Z,2559.38
2023-04-23T11:39:21.324Z,1586.25
2023-04-23T11:40:21.378Z,1215.00
2023-04-23T11:41:21.321Z,855.00
2023-04-23T11:42:21.392Z,843.75
2023-04-23T11:43:21.339Z,770.62
2023-04-23T11:44:21.413Z,832.50
2023-04-23T11:45:21.340Z,669.38
2023-04-23T11:46:21.390Z,596.25
2023-04-23T11:47:21.388Z,534.38
2023-04-23T11:48:21.281Z,489.38
2023-04-23T11:49:21.284Z,466.88
2023-04-23T11:50:21.325Z,466.88
2023-04-23T11:51:21.268Z,466.88
2023-04-23T11:52:21.272Z,472.50
2023-04-23T11:53:21.298Z,478.12
2023-04-23T11:54:21.282Z,489.38
2023-04-23T11:55:21.229Z,506.25
2023-04-23T11:56:21.228Z,528.75
2023-04-23T11:57:21.270Z,562.50
2023-04-23T11:58:21.306Z,618.75
2023-04-23T11:59:21.221Z,697.50
2023-04-23T12:00:21.278Z,1012.50
2023-04-23T12:01:21.205Z,2176.88
2023-04-23T12:02:21.417Z,2480.62
2023-04-23T12:03:21.289Z,2452.50
2023-04-23T12:04:21.404Z,2536.88
2023-04-23T12:05:22.054Z,2435.62
2023-04-23T12:06:21.222Z,2351.25
2023-04-23T12:07:26.430Z,2452.50
2023-04-23T12:08:23.216Z,2356.88
2023-04-23T12:09:21.214Z,2587.50
2023-04-23T12:10:21.197Z,2643.75
2023-04-23T12:11:21.149Z,2643.75
2023-04-23T12:12:21.147Z,2514.38
2023-04-23T12:13:21.165Z,2295.00
2023-04-23T12:14:21.147Z,2379.38
2023-04-23T12:15:21.142Z,2278.12
2023-04-23T12:16:21.179Z,2385.00
2023-04-23T12:17:21.151Z,2283.75
2023-04-23T12:18:21.133Z,2210.62
2023-04-23T12:19:21.104Z,1676.25
2023-04-23T12:20:21.185Z,871.88
2023-04-23T12:21:21.098Z,928.12
2023-04-23T12:22:21.111Z,967.50
2023-04-23T12:23:21.069Z,961.88
2023-04-23T12:24:21.066Z,1265.62
2023-04-23T12:25:21.099Z,1209.38
2023-04-23T12:26:21.136Z,1057.50
2023-04-23T12:27:21.072Z,860.62
2023-04-23T12:28:21.025Z,635.62
2023-04-23T12:29:21.023Z,568.12
2023-04-23T12:30:21.047Z,540.00
2023-04-23T12:31:21.106Z,523.12
2023-04-23T12:32:21.057Z,517.50
2023-04-23T12:33:21.002Z,523.12
2023-04-23T12:34:21.016Z,517.50
2023-04-23T12:35:21.054Z,523.12
2023-04-23T12:36:20.982Z,534.38
2023-04-23T12:37:21.021Z,540.00
2023-04-23T12:38:20.994Z,556.88
2023-04-23T12:39:20.972Z,562.50
2023-04-23T12:40:20.983Z,568.12
2023-04-23T12:41:20.979Z,562.50
2023-04-23T12:42:21.010Z,568.12